createdAt,value
2017-01-25T00:00:20.163Z,12.61
2017-01-25T00:01:00.648Z,12.71
2017-01-25T00:01:41.150Z,12.51
2017-01-25T00:02:21.642Z,12.71
2017-01-25T00:03:02.133Z,12.51
2017-01-25T00:03:42.612Z,12.32
2017-01-25T00:04:23.103Z,12.23
2017-01-25T00:05:03.784Z,12.32
2017-01-25T00:05:44.284Z,12.41
2017-01-25T00:06:24.812Z,12.41
2017-01-25T00:07:05.265Z,12.32
2017-01-25T00:07:45.754Z,12.23
2017-01-25T00:08:26.262Z,12.41
2017-01-25T00:09:06.736Z,12.8
2017-01-25T00:09:47.244Z,12.61
2017-01-25T00:10:27.733Z,12.61
2017-01-25T00:11:08.232Z,12.61
2017-01-25T00:11:48.730Z,12.41
2017-01-25T00:12:29.247Z,12.32
2017-01-25T00:13:09.750Z,12.41
2017-01-25T00:13:50.240Z,12.51
2017-01-25T00:14:30.732Z,12.61
2017-01-25T00:15:11.222Z,12.41
2017-01-25T00:15:51.703Z,12.51
2017-01-25T00:16:32.191Z,12.23
2017-01-25T00:17:12.687Z,12.71
2017-01-25T00:19:25.486Z,12.61
2017-01-25T00:20:05.983Z,12.61
2017-01-25T00:20:46.456Z,12.23
2017-01-25T00:21:26.946Z,12.41
2017-01-25T00:22:07.434Z,12.41
2017-01-25T00:22:47.933Z,12.61
2017-01-25T00:23:28.435Z,12.61
2017-01-25T00:24:08.929Z,12.61
2017-01-25T00:24:49.407Z,12.23
2017-01-25T00:25:29.899Z,12.23
2017-01-25T00:26:10.393Z,12.61
2017-01-25T00:26:50.879Z,12.23
2017-01-25T00:27:31.375Z,12.41
2017-01-25T00:28:11.874Z,12.23
2017-01-25T00:28:52.354Z,12.61
2017-01-25T00:29:32.848Z,12.71
2017-01-25T00:30:13.349Z,12.71
2017-01-25T00:30:53.851Z,12.61
2017-01-25T00:31:34.338Z,12.61
2017-01-25T00:32:14.833Z,12.51
2017-01-25T00:32:55.323Z,12.61
2017-01-25T00:33:35.816Z,12.61
2017-01-25T00:34:16.334Z,12.61
2017-01-25T00:34:56.829Z,12.23
2017-01-25T00:35:37.321Z,12.41
2017-01-25T00:36:17.814Z,12.32
2017-01-25T00:36:58.300Z,12.41
2017-01-25T00:37:38.798Z,12.32
2017-01-25T00:38:19.291Z,12.41
2017-01-25T00:38:59.785Z,12.41
2017-01-25T00:39:40.274Z,12.41
2017-01-25T00:40:20.765Z,12.32
2017-01-25T00:41:01.318Z,12.32
2017-01-25T00:41:41.824Z,12.51
2017-01-25T00:42:22.314Z,12.32
2017-01-25T00:43:02.843Z,12.41
2017-01-25T00:43:43.333Z,12.41
2017-01-25T00:44:23.842Z,12.41
2017-01-25T00:45:04.339Z,12.22
2017-01-25T00:45:44.837Z,12.6
2017-01-25T00:46:25.337Z,12.61
2017-01-25T00:47:05.864Z,12.6
2017-01-25T00:47:46.333Z,12.6
2017-01-25T00:48:26.838Z,12.6
2017-01-25T00:49:07.338Z,12.32
2017-01-25T00:49:47.836Z,12.41
2017-01-25T00:50:28.320Z,12.51
2017-01-25T00:51:08.812Z,12.32
2017-01-25T00:51:49.302Z,12.23
2017-01-25T00:52:29.799Z,12.32
2017-01-25T00:53:10.285Z,12.23
2017-01-25T00:53:50.785Z,12.32
2017-01-25T00:54:31.320Z,12.23
2017-01-25T00:55:11.811Z,12.32
2017-01-25T00:55:52.306Z,12.41
2017-01-25T00:56:32.796Z,12.32
2017-01-25T00:57:13.295Z,12.32
2017-01-25T00:57:53.775Z,12.32
2017-01-25T00:58:34.271Z,12.41
2017-01-25T00:59:14.751Z,12.32
2017-01-25T00:59:55.268Z,12.23
2017-01-25T01:00:35.751Z,12.32
2017-01-25T01:01:16.261Z,12.32
2017-01-25T01:01:56.747Z,12.6
2017-01-25T01:02:37.237Z,12.61
2017-01-25T01:03:17.722Z,12.41
2017-01-25T01:03:58.210Z,12.41
2017-01-25T01:04:38.726Z,12.32
2017-01-25T01:05:19.197Z,12.32
2017-01-25T01:05:59.700Z,12.23
2017-01-25T01:06:40.204Z,12.32
2017-01-25T01:07:20.703Z,12.32
2017-01-25T01:08:01.198Z,12.22
2017-01-25T01:08:41.697Z,12.23
2017-01-25T01:09:22.186Z,12.6
2017-01-25T01:10:02.685Z,12.6
2017-01-25T01:10:43.286Z,12.6
2017-01-25T01:11:23.795Z,12.6
2017-01-25T01:12:04.280Z,12.6
2017-01-25T01:12:44.774Z,12.6
2017-01-25T01:13:25.277Z,12.6
2017-01-25T01:14:05.753Z,12.71
2017-01-25T01:14:46.242Z,12.32
2017-01-25T01:15:26.732Z,12.32
2017-01-25T01:16:07.382Z,12.23
2017-01-25T01:16:47.895Z,12.41
2017-01-25T01:17:28.383Z,12.32
2017-01-25T01:18:08.886Z,12.22
2017-01-25T01:18:49.360Z,12.32
2017-01-25T01:19:29.832Z,12.23
2017-01-25T01:20:10.341Z,12.32
2017-01-25T01:20:50.833Z,12.32
2017-01-25T01:21:31.350Z,12.23
2017-01-25T01:22:11.834Z,12.51
2017-01-25T01:22:52.337Z,12.41
2017-01-25T01:23:32.822Z,12.32
2017-01-25T01:24:13.322Z,12.41
2017-01-25T01:24:53.804Z,12.23
2017-01-25T01:25:34.285Z,12.41
2017-01-25T01:26:14.783Z,12.41
2017-01-25T01:26:55.270Z,12.32
2017-01-25T01:27:35.783Z,12.32
2017-01-25T01:28:16.289Z,12.32
2017-01-25T01:28:56.767Z,12.41
2017-01-25T01:29:37.250Z,12.32
2017-01-25T01:30:17.741Z,12.23
2017-01-25T01:30:58.232Z,12.41
2017-01-25T01:31:38.720Z,12.32
2017-01-25T01:32:19.228Z,12.41
2017-01-25T01:32:59.717Z,12.22
2017-01-25T01:33:40.228Z,12.32
2017-01-25T01:34:20.710Z,12.23
2017-01-25T01:35:01.213Z,12.41
2017-01-25T01:35:41.707Z,12.41
2017-01-25T01:36:22.196Z,12.32
2017-01-25T01:37:02.677Z,12.32
2017-01-25T01:37:43.164Z,12.51
2017-01-25T01:38:23.640Z,12.23
2017-01-25T01:39:04.133Z,12.51
2017-01-25T01:39:44.609Z,12.22
2017-01-25T01:40:25.119Z,12.32
2017-01-25T01:41:05.605Z,12.22
2017-01-25T01:41:46.100Z,12.32
2017-01-25T01:42:26.581Z,12.32
2017-01-25T01:43:07.073Z,12.32
2017-01-25T01:43:47.563Z,12.41
2017-01-25T01:44:28.051Z,12.22
2017-01-25T01:45:08.558Z,12.41
2017-01-25T01:45:49.049Z,12.32
2017-01-25T01:46:29.827Z,12.32
2017-01-25T01:47:10.228Z,11.93
2017-01-25T01:47:50.709Z,12.23
2017-01-25T01:48:31.190Z,12.41
2017-01-25T01:49:11.676Z,12.51
2017-01-25T01:49:52.161Z,12.51
2017-01-25T01:50:32.670Z,12.32
2017-01-25T01:51:13.149Z,12.32
2017-01-25T01:51:53.643Z,12.32
2017-01-25T01:52:34.137Z,12.32
2017-01-25T01:53:14.606Z,12.41
2017-01-25T01:53:55.105Z,12.32
2017-01-25T01:54:35.593Z,12.41
2017-01-25T01:55:16.106Z,12.41
2017-01-25T01:55:56.594Z,12.22
2017-01-25T01:56:37.103Z,12.32
2017-01-25T01:57:17.592Z,12.41
2017-01-25T01:57:58.106Z,12.32
2017-01-25T01:58:38.609Z,12.22
2017-01-25T01:59:19.091Z,12.32
2017-01-25T01:59:59.588Z,12.32
2017-01-25T02:00:40.097Z,12.32
2017-01-25T02:01:20.586Z,12.32
2017-01-25T02:02:01.082Z,12.22
2017-01-25T02:02:41.565Z,12.32
2017-01-25T02:03:22.049Z,12.41
2017-01-25T02:04:02.544Z,12.32
2017-01-25T02:06:15.348Z,12.32
2017-01-25T02:06:55.823Z,12.32
2017-01-25T02:07:36.311Z,12.41
2017-01-25T02:08:16.806Z,12.41
2017-01-25T02:08:57.295Z,12.32
2017-01-25T02:09:37.800Z,12.41
2017-01-25T02:10:18.293Z,12.32
2017-01-25T02:10:58.813Z,12.22
2017-01-25T02:11:39.268Z,12.6
2017-01-25T02:12:19.764Z,12.41
2017-01-25T02:13:00.251Z,12.51
2017-01-25T02:13:40.737Z,12.41
2017-01-25T02:14:21.229Z,12.41
2017-01-25T02:15:01.714Z,12.41
2017-01-25T02:17:19.722Z,12.41
2017-01-25T02:18:00.220Z,12.51
2017-01-25T02:18:40.699Z,12.32
2017-01-25T02:19:21.231Z,12.32
2017-01-25T02:20:01.669Z,12.41
2017-01-25T02:20:42.178Z,12.32
2017-01-25T02:21:22.667Z,12.51
2017-01-25T02:22:03.162Z,12.41
2017-01-25T02:22:43.655Z,12.41
2017-01-25T02:23:24.181Z,12.51
2017-01-25T02:24:04.668Z,12.41
2017-01-25T02:24:45.160Z,12.22
2017-01-25T02:25:25.640Z,12.32
2017-01-25T02:26:06.118Z,12.41
2017-01-25T02:26:46.620Z,12.22
2017-01-25T02:27:27.172Z,12.32
2017-01-25T02:28:07.659Z,12.32
2017-01-25T02:28:48.165Z,12.22
2017-01-25T02:29:28.654Z,12.51
2017-01-25T02:31:41.432Z,12.41
2017-01-25T02:32:21.921Z,12.41
2017-01-25T02:33:02.429Z,12.22
2017-01-25T02:33:42.918Z,12.41
2017-01-25T02:34:23.440Z,11.93
2017-01-25T02:35:03.922Z,12.41
2017-01-25T02:35:44.415Z,12.41
2017-01-25T02:36:24.915Z,12.51
2017-01-25T02:37:05.429Z,12.6
2017-01-25T02:37:46.117Z,12.22
2017-01-25T02:38:26.612Z,12.32
2017-01-25T02:39:07.082Z,12.32
2017-01-25T02:39:47.566Z,12.41
2017-01-25T02:40:28.062Z,12.41
2017-01-25T02:41:08.554Z,12.22
2017-01-25T02:41:49.028Z,11.93
2017-01-25T02:42:29.530Z,11.93
2017-01-25T02:43:10.015Z,12.41
2017-01-25T02:43:50.535Z,12.41
2017-01-25T02:44:31.015Z,12.41
2017-01-25T02:45:11.508Z,12.51
2017-01-25T02:45:51.985Z,12.41
2017-01-25T02:46:32.461Z,12.32
2017-01-25T02:47:12.967Z,12.32
2017-01-25T02:47:53.453Z,12.22
2017-01-25T02:48:33.957Z,12.41
2017-01-25T02:49:14.423Z,11.93
2017-01-25T02:49:54.903Z,12.41
2017-01-25T02:50:35.400Z,12.32
2017-01-25T02:51:15.884Z,12.32
2017-01-25T02:51:56.371Z,12.22
2017-01-25T02:52:36.862Z,12.32
2017-01-25T02:53:17.339Z,12.41
2017-01-25T02:53:57.864Z,12.22
2017-01-25T02:54:38.347Z,12.41
2017-01-25T02:55:18.872Z,12.22
2017-01-25T02:55:59.348Z,12.51
2017-01-25T02:56:39.855Z,12.41
2017-01-25T02:57:20.347Z,12.22
2017-01-25T02:58:00.839Z,12.22
2017-01-25T02:58:41.344Z,12.32
2017-01-25T02:59:21.839Z,11.93
2017-01-25T03:00:02.323Z,12.32
2017-01-25T03:00:42.811Z,12.32
2017-01-25T03:01:23.300Z,12.41
2017-01-25T03:02:03.785Z,12.51
2017-01-25T03:02:44.253Z,12.41
2017-01-25T03:03:24.763Z,12.41
2017-01-25T03:04:05.239Z,12.22
2017-01-25T03:04:45.750Z,12.51
2017-01-25T03:05:26.242Z,12.32
2017-01-25T03:06:06.750Z,12.23
2017-01-25T03:06:47.230Z,12.12
2017-01-25T03:07:27.730Z,11.83
2017-01-25T03:08:08.400Z,11.83
2017-01-25T03:08:48.884Z,12.32
2017-01-25T03:09:29.394Z,12.7
2017-01-25T03:10:09.885Z,12.41
2017-01-25T03:10:50.408Z,12.41
2017-01-25T03:11:30.888Z,12.22
2017-01-25T03:12:11.397Z,12.32
2017-01-25T03:12:51.886Z,11.93
2017-01-25T03:13:32.376Z,12.02
2017-01-25T03:14:12.871Z,11.93
2017-01-25T03:14:53.358Z,11.83
2017-01-25T03:15:33.841Z,12.02
2017-01-25T03:16:14.328Z,12.23
2017-01-25T03:16:54.828Z,12.13
2017-01-25T03:17:35.316Z,12.13
2017-01-25T03:18:15.801Z,12.12
2017-01-25T03:18:56.300Z,12.12
2017-01-25T03:19:36.774Z,12.12
2017-01-25T03:20:17.269Z,12.12
2017-01-25T03:20:57.752Z,12.02
2017-01-25T03:21:38.250Z,12.12
2017-01-25T03:22:18.735Z,12.32
2017-01-25T03:22:59.220Z,12.02
2017-01-25T03:23:39.739Z,11.83
2017-01-25T03:24:20.195Z,12.02
2017-01-25T03:25:00.687Z,12.22
2017-01-25T03:25:41.176Z,12.02
2017-01-25T03:26:21.663Z,11.93
2017-01-25T03:27:02.177Z,12.02
2017-01-25T03:27:42.663Z,12.02
2017-01-25T03:28:23.176Z,11.83
2017-01-25T03:29:03.669Z,12.02
2017-01-25T03:29:44.156Z,11.83
2017-01-25T03:30:24.638Z,12.41
2017-01-25T03:31:05.119Z,11.93
2017-01-25T03:31:45.621Z,11.93
2017-01-25T03:32:26.107Z,11.93
2017-01-25T03:33:06.620Z,11.83
2017-01-25T03:33:47.108Z,12.51
2017-01-25T03:34:27.604Z,12.41
2017-01-25T03:35:08.106Z,12.51
2017-01-25T03:35:48.617Z,12.32
2017-01-25T03:36:29.104Z,11.93
2017-01-25T03:37:09.602Z,11.93
2017-01-25T03:37:50.098Z,12.22
2017-01-25T03:38:30.821Z,12.22
2017-01-25T03:39:11.306Z,12.12
2017-01-25T03:39:51.813Z,12.12
2017-01-25T03:40:32.442Z,12.22
2017-01-25T03:41:12.921Z,12.02
2017-01-25T03:41:53.404Z,12.02
2017-01-25T03:42:33.963Z,12.12
2017-01-25T03:43:14.469Z,12.32
2017-01-25T03:43:54.952Z,12.22
2017-01-25T03:44:35.464Z,12.02
2017-01-25T03:45:15.949Z,11.93
2017-01-25T03:45:56.433Z,12.22
2017-01-25T03:46:36.927Z,12.22
2017-01-25T03:47:17.401Z,11.83
2017-01-25T03:47:57.900Z,11.83
2017-01-25T03:48:38.393Z,11.93
2017-01-25T03:49:18.848Z,12.02
2017-01-25T03:49:59.347Z,12.12
2017-01-25T03:50:39.849Z,12.22
2017-01-25T03:51:20.356Z,12.02
2017-01-25T03:52:00.842Z,12.22
2017-01-25T03:52:41.357Z,12.22
2017-01-25T03:53:21.843Z,12.12
2017-01-25T03:54:02.363Z,12.12
2017-01-25T03:54:42.847Z,12.02
2017-01-25T03:55:23.353Z,12.12
2017-01-25T03:56:03.835Z,12.22
2017-01-25T03:56:44.350Z,12.12
2017-01-25T03:57:24.898Z,12.02
2017-01-25T03:58:05.322Z,12.02
2017-01-25T03:58:45.812Z,12.02
2017-01-25T03:59:26.291Z,12.22
2017-01-25T04:00:06.796Z,12.12
2017-01-25T04:00:47.299Z,12.02
2017-01-25T04:01:27.796Z,12.12
2017-01-25T04:02:08.289Z,12.12
2017-01-25T04:02:48.783Z,12.23
2017-01-25T04:03:29.280Z,12.22
2017-01-25T04:04:09.794Z,12.02
2017-01-25T04:04:50.283Z,12.22
2017-01-25T04:05:30.782Z,12.32
2017-01-25T04:06:11.274Z,12.22
2017-01-25T04:06:51.755Z,12.22
2017-01-25T04:07:32.260Z,11.93
2017-01-25T04:08:12.736Z,12.02
2017-01-25T04:08:53.237Z,11.93
2017-01-25T04:09:33.723Z,12.12
2017-01-25T04:10:14.226Z,12.12
2017-01-25T04:10:54.702Z,12.12
2017-01-25T04:11:35.182Z,12.12
2017-01-25T04:12:15.684Z,12.22
2017-01-25T04:12:56.170Z,12.12
2017-01-25T04:13:36.671Z,11.83
2017-01-25T04:14:17.160Z,12.12
2017-01-25T04:14:57.646Z,12.32
2017-01-25T04:15:38.135Z,12.22
2017-01-25T04:16:18.621Z,12.22
2017-01-25T04:16:59.099Z,12.22
2017-01-25T04:17:39.590Z,12.32
2017-01-25T04:18:20.099Z,12.12
2017-01-25T04:19:00.603Z,12.22
2017-01-25T04:19:41.062Z,12.12
2017-01-25T04:20:21.576Z,12.22
2017-01-25T04:21:02.065Z,12.12
2017-01-25T04:21:42.575Z,12.12
2017-01-25T04:22:23.061Z,11.93
2017-01-25T04:23:03.571Z,11.93
2017-01-25T04:23:44.054Z,11.93
2017-01-25T04:24:24.568Z,11.93
2017-01-25T04:25:05.058Z,12.22
2017-01-25T04:25:45.570Z,12.22
2017-01-25T04:26:26.059Z,12.12
2017-01-25T04:27:06.554Z,12.22
2017-01-25T04:27:47.035Z,12.12
2017-01-25T04:28:27.518Z,12.12
2017-01-25T04:29:08.016Z,12.12
2017-01-25T04:29:48.502Z,12.22
2017-01-25T04:30:29.002Z,12.22
2017-01-25T04:31:09.503Z,12.12
2017-01-25T04:31:49.997Z,12.12
2017-01-25T04:32:30.500Z,12.32
2017-01-25T04:33:10.999Z,12.12
2017-01-25T04:33:51.500Z,12.22
2017-01-25T04:34:31.995Z,12.12
2017-01-25T04:35:12.476Z,12.12
2017-01-25T04:35:52.965Z,12.22
2017-01-25T04:36:33.453Z,12.12
2017-01-25T04:37:13.972Z,12.12
2017-01-25T04:37:55.175Z,12.12
2017-01-25T04:38:35.663Z,12.12
2017-01-25T04:39:16.179Z,12.12
2017-01-25T04:39:56.659Z,12.12
2017-01-25T04:40:37.155Z,11.93
2017-01-25T04:41:17.634Z,11.93
2017-01-25T04:41:58.128Z,11.83
2017-01-25T04:42:38.627Z,11.83
2017-01-25T04:43:19.102Z,12.12
2017-01-25T04:43:59.625Z,12.22
2017-01-25T04:44:40.354Z,12.22
2017-01-25T04:45:20.836Z,12.12
2017-01-25T04:46:01.313Z,12.12
2017-01-25T04:46:41.830Z,11.93
2017-01-25T04:47:22.284Z,12.22
2017-01-25T04:48:02.764Z,12.12
2017-01-25T04:48:43.260Z,12.02
2017-01-25T04:49:23.752Z,12.02
2017-01-25T04:50:04.261Z,12.12
2017-01-25T04:50:44.750Z,12.02
2017-01-25T04:51:25.271Z,12.02
2017-01-25T04:52:05.750Z,12.12
2017-01-25T04:52:46.246Z,12.12
2017-01-25T04:53:26.725Z,12.12
2017-01-25T04:54:07.208Z,12.22
2017-01-25T04:54:47.709Z,12.02
2017-01-25T04:55:28.194Z,12.22
2017-01-25T04:56:08.692Z,12.12
2017-01-25T04:56:49.186Z,12.02
2017-01-25T04:57:29.675Z,12.22
2017-01-25T04:58:10.163Z,12.12
2017-01-25T04:58:50.644Z,12.02
2017-01-25T04:59:31.138Z,12.22
2017-01-25T05:00:11.631Z,12.12
2017-01-25T05:00:52.107Z,12.12
2017-01-25T05:01:32.598Z,12.02
2017-01-25T05:02:13.086Z,12.12
2017-01-25T05:02:53.601Z,12.12
2017-01-25T05:03:34.086Z,12.12
2017-01-25T05:04:14.570Z,12.12
2017-01-25T05:04:55.073Z,12.22
2017-01-25T05:05:35.549Z,11.93
2017-01-25T05:06:16.045Z,12.22
2017-01-25T05:06:56.531Z,12.02
2017-01-25T05:07:37.031Z,12.12
2017-01-25T05:08:17.530Z,12.12
2017-01-25T05:08:58.026Z,12.12
2017-01-25T05:09:38.699Z,12.12
2017-01-25T05:10:19.184Z,12.32
2017-01-25T05:10:59.700Z,12.12
2017-01-25T05:11:40.180Z,12.22
2017-01-25T05:12:20.673Z,12.12
2017-01-25T05:13:01.157Z,12.12
2017-01-25T05:13:41.633Z,12.12
2017-01-25T05:14:22.140Z,12.12
2017-01-25T05:15:02.624Z,12.32
2017-01-25T05:15:43.117Z,12.12
2017-01-25T05:16:23.620Z,12.02
2017-01-25T05:17:04.103Z,12.22
2017-01-25T05:17:44.593Z,11.93
2017-01-25T05:18:25.075Z,11.74
2017-01-25T05:19:05.568Z,11.93
2017-01-25T05:19:46.069Z,11.74
2017-01-25T05:20:26.571Z,11.74
2017-01-25T05:21:07.071Z,11.83
2017-01-25T05:21:47.565Z,12.22
2017-01-25T05:22:28.059Z,12.12
2017-01-25T05:23:08.536Z,11.93
2017-01-25T05:23:49.029Z,12.22
2017-01-25T05:24:29.515Z,12.02
2017-01-25T05:25:10.012Z,12.12
2017-01-25T05:25:50.494Z,11.93
2017-01-25T05:26:30.990Z,12.22
2017-01-25T05:27:11.488Z,12.22
2017-01-25T05:27:51.968Z,12.22
2017-01-25T05:28:32.471Z,12.22
2017-01-25T05:29:12.956Z,12.22
2017-01-25T05:29:53.495Z,12.22
2017-01-25T05:30:33.955Z,12.12
2017-01-25T05:31:14.457Z,12.12
2017-01-25T05:31:54.960Z,12.22
2017-01-25T05:32:35.458Z,11.83
2017-01-25T05:33:15.955Z,11.64
2017-01-25T05:33:56.453Z,11.64
2017-01-25T05:34:36.933Z,11.83
2017-01-25T05:35:17.416Z,12.22
2017-01-25T05:35:57.912Z,12.22
2017-01-25T05:36:38.401Z,12.02
2017-01-25T05:37:18.894Z,11.93
2017-01-25T05:37:59.379Z,12.02
2017-01-25T05:38:39.867Z,11.93
2017-01-25T05:39:20.359Z,11.93
2017-01-25T05:40:01.052Z,12.22
2017-01-25T05:40:41.562Z,12.32
2017-01-25T05:41:22.048Z,12.22
2017-01-25T05:42:02.561Z,12.32
2017-01-25T05:42:43.046Z,12.12
2017-01-25T05:43:23.558Z,11.93
2017-01-25T05:44:04.044Z,11.83
2017-01-25T05:44:44.542Z,12.22
2017-01-25T05:45:25.041Z,12.12
2017-01-25T05:46:05.530Z,12.12
2017-01-25T05:46:46.028Z,12.22
2017-01-25T05:47:26.525Z,12.12
2017-01-25T05:48:07.010Z,12.22
2017-01-25T05:48:47.493Z,12.12
2017-01-25T05:49:27.991Z,12.32
2017-01-25T05:50:08.490Z,12.02
2017-01-25T05:50:49.015Z,12.22
2017-01-25T05:51:29.488Z,12.22
2017-01-25T05:52:10.003Z,12.12
2017-01-25T05:52:50.488Z,12.22
2017-01-25T05:53:30.976Z,12.12
2017-01-25T05:54:11.478Z,12.22
2017-01-25T05:54:51.946Z,12.02
2017-01-25T05:55:32.444Z,12.22
2017-01-25T05:56:12.933Z,12.22
2017-01-25T05:56:53.446Z,12.02
2017-01-25T05:57:33.934Z,11.83
2017-01-25T05:58:14.446Z,11.93
2017-01-25T05:58:54.933Z,11.83
2017-01-25T05:59:35.426Z,11.83
2017-01-25T06:00:15.938Z,12.12
2017-01-25T06:00:56.423Z,12.02
2017-01-25T06:01:36.909Z,12.12
2017-01-25T06:02:17.382Z,12.12
2017-01-25T06:02:57.886Z,12.22
2017-01-25T06:03:38.382Z,11.83
2017-01-25T06:04:18.891Z,12.12
2017-01-25T06:04:59.384Z,12.12
2017-01-25T06:05:39.885Z,12.22
2017-01-25T06:06:20.372Z,12.32
2017-01-25T06:07:00.881Z,11.93
2017-01-25T06:07:41.374Z,11.93
2017-01-25T06:08:21.867Z,12.12
2017-01-25T06:09:02.346Z,11.93
2017-01-25T06:09:42.823Z,12.22
2017-01-25T06:10:23.314Z,12.22
2017-01-25T06:11:03.795Z,12.02
2017-01-25T06:11:44.290Z,12.22
2017-01-25T06:12:24.793Z,12.12
2017-01-25T06:13:05.269Z,12.12
2017-01-25T06:13:45.774Z,11.93
2017-01-25T06:14:26.266Z,12.22
2017-01-25T06:15:06.772Z,12.02
2017-01-25T06:15:47.262Z,12.02
2017-01-25T06:16:27.775Z,12.02
2017-01-25T06:17:08.262Z,11.83
2017-01-25T06:17:48.760Z,11.93
2017-01-25T06:18:29.242Z,12.02
2017-01-25T06:19:09.740Z,12.22
2017-01-25T06:19:50.238Z,12.12
2017-01-25T06:20:30.729Z,12.12
2017-01-25T06:21:11.229Z,12.12
2017-01-25T06:21:51.708Z,12.22
2017-01-25T06:22:32.439Z,12.02
2017-01-25T06:23:12.823Z,11.93
2017-01-25T06:23:53.314Z,12.32
2017-01-25T06:24:33.801Z,12.51
2017-01-25T06:25:14.313Z,12.41
2017-01-25T06:25:54.778Z,12.32
2017-01-25T06:26:35.269Z,11.83
2017-01-25T06:27:15.759Z,12.32
2017-01-25T06:27:56.248Z,11.93
2017-01-25T06:28:36.789Z,12.02
2017-01-25T06:29:17.280Z,12.12
2017-01-25T06:29:57.765Z,12.22
2017-01-25T06:30:38.248Z,12.22
2017-01-25T06:31:18.745Z,11.93
2017-01-25T06:31:59.241Z,11.93
2017-01-25T06:32:39.713Z,12.41
2017-01-25T06:33:20.212Z,12.51
2017-01-25T06:34:00.697Z,12.51
2017-01-25T06:34:41.206Z,12.22
2017-01-25T06:35:21.694Z,12.12
2017-01-25T06:36:02.205Z,12.12
2017-01-25T06:36:42.695Z,12.02
2017-01-25T06:37:23.188Z,12.22
2017-01-25T06:38:03.669Z,12.22
2017-01-25T06:38:44.160Z,11.93
2017-01-25T06:39:24.651Z,12.02
2017-01-25T06:40:05.138Z,11.93
2017-01-25T06:40:45.636Z,12.22
2017-01-25T06:41:26.127Z,12.12
2017-01-25T06:42:06.604Z,12.22
2017-01-25T06:42:47.094Z,12.12
2017-01-25T06:43:28.500Z,12.12
2017-01-25T06:44:09.013Z,12.22
2017-01-25T06:44:49.506Z,12.22
2017-01-25T06:45:30.004Z,12.02
2017-01-25T06:46:10.499Z,12.02
2017-01-25T06:46:50.997Z,11.93
2017-01-25T06:47:31.497Z,12.22
2017-01-25T06:48:11.967Z,12.41
2017-01-25T06:48:52.470Z,12.41
2017-01-25T06:49:32.926Z,12.22
2017-01-25T06:50:13.424Z,12.41
2017-01-25T06:50:53.914Z,12.22
2017-01-25T06:51:34.397Z,12.41
2017-01-25T06:52:14.906Z,12.41
2017-01-25T06:52:55.400Z,12.41
2017-01-25T06:53:35.883Z,12.22
2017-01-25T06:54:16.369Z,12.22
2017-01-25T06:54:56.866Z,12.22
2017-01-25T06:55:37.360Z,12.41
2017-01-25T06:56:17.850Z,12.22
2017-01-25T06:56:58.349Z,12.41
2017-01-25T06:57:38.837Z,12.41
2017-01-25T06:58:19.346Z,12.41
2017-01-25T06:58:59.837Z,12.32
2017-01-25T06:59:40.332Z,12.51
2017-01-25T07:00:20.837Z,12.51
2017-01-25T07:01:01.344Z,12.6
2017-01-25T07:01:41.844Z,12.22
2017-01-25T07:02:22.343Z,12.41
2017-01-25T07:03:02.844Z,12.22
2017-01-25T07:03:43.327Z,12.22
2017-01-25T07:04:23.859Z,12.41
2017-01-25T07:05:04.334Z,12.22
2017-01-25T07:05:44.836Z,12.32
2017-01-25T07:06:25.344Z,11.93
2017-01-25T07:07:05.841Z,12.51
2017-01-25T07:07:46.339Z,12.22
2017-01-25T07:08:29.563Z,12.51
2017-01-25T07:09:10.042Z,12.41
2017-01-25T07:09:50.520Z,12.32
2017-01-25T07:10:31.004Z,12.41
2017-01-25T07:11:11.493Z,12.22
2017-01-25T07:11:51.998Z,12.32
2017-01-25T07:12:32.488Z,12.32
2017-01-25T07:13:12.982Z,12.32
2017-01-25T07:13:53.476Z,12.32
2017-01-25T07:14:33.963Z,12.22
2017-01-25T07:15:14.448Z,12.51
2017-01-25T07:15:54.934Z,12.51
2017-01-25T07:16:35.429Z,12.22
2017-01-25T07:17:15.910Z,12.32
2017-01-25T07:17:56.411Z,12.22
2017-01-25T07:18:36.906Z,12.41
2017-01-25T07:19:17.399Z,12.22
2017-01-25T07:19:57.901Z,12.23
2017-01-25T07:20:38.386Z,12.13
2017-01-25T07:21:18.888Z,12.22
2017-01-25T07:21:59.373Z,12.41
2017-01-25T07:22:39.889Z,12.32
2017-01-25T07:23:20.374Z,12.22
2017-01-25T07:24:00.876Z,12.32
2017-01-25T07:24:41.368Z,12.22
2017-01-25T07:25:21.880Z,12.32
2017-01-25T07:26:02.374Z,12.22
2017-01-25T07:26:42.867Z,12.22
2017-01-25T07:27:23.348Z,12.7
2017-01-25T07:28:03.825Z,12.6
2017-01-25T07:28:44.338Z,12.41
2017-01-25T07:29:24.819Z,12.41
2017-01-25T07:30:05.312Z,12.51
2017-01-25T07:30:45.795Z,12.7
2017-01-25T07:31:26.299Z,12.6
2017-01-25T07:32:06.779Z,12.6
2017-01-25T07:32:47.265Z,12.6
2017-01-25T07:33:27.760Z,12.7
2017-01-25T07:34:08.283Z,12.79
2017-01-25T07:34:48.759Z,12.6
2017-01-25T07:35:29.258Z,12.6
2017-01-25T07:36:09.737Z,12.51
2017-01-25T07:36:50.258Z,12.51
2017-01-25T07:37:30.765Z,12.6
2017-01-25T07:38:11.256Z,12.6
2017-01-25T07:38:51.768Z,12.51
2017-01-25T07:39:32.256Z,12.6
2017-01-25T07:40:12.756Z,12.7
2017-01-25T07:40:53.255Z,12.6
2017-01-25T07:41:33.767Z,12.61
2017-01-25T07:42:14.274Z,12.6
2017-01-25T07:42:54.752Z,12.6
2017-01-25T07:43:35.233Z,12.61
2017-01-25T07:44:15.730Z,12.51
2017-01-25T07:44:56.217Z,12.6
2017-01-25T07:45:36.702Z,12.6
2017-01-25T07:46:17.215Z,12.61
2017-01-25T07:46:57.702Z,12.71
2017-01-25T07:47:38.193Z,12.51
2017-01-25T07:48:18.687Z,12.51
2017-01-25T07:48:59.167Z,12.61
2017-01-25T07:49:39.657Z,12.7
2017-01-25T07:50:20.148Z,12.41
2017-01-25T07:51:00.645Z,12.71
2017-01-25T07:51:41.136Z,12.71
2017-01-25T07:52:21.877Z,12.61
2017-01-25T07:53:02.370Z,12.61
2017-01-25T07:53:42.869Z,12.6
2017-01-25T07:54:23.378Z,12.61
2017-01-25T07:55:03.859Z,12.6
2017-01-25T07:55:44.340Z,12.71
2017-01-25T07:56:24.828Z,12.71
2017-01-25T07:57:05.308Z,12.51
2017-01-25T07:57:45.797Z,12.89
2017-01-25T07:58:26.307Z,12.89
2017-01-25T07:59:06.793Z,12.79
2017-01-25T07:59:47.286Z,12.71
2017-01-25T08:00:27.789Z,12.61
2017-01-25T08:01:08.272Z,12.71
2017-01-25T08:01:48.766Z,12.51
2017-01-25T08:02:29.248Z,12.71
2017-01-25T08:03:09.745Z,12.61
2017-01-25T08:03:50.238Z,12.61
2017-01-25T08:04:30.730Z,12.61
2017-01-25T08:05:11.214Z,12.51
2017-01-25T08:05:51.713Z,12.71
2017-01-25T08:06:32.206Z,12.8
2017-01-25T08:07:12.681Z,12.8
2017-01-25T08:07:53.194Z,12.8
2017-01-25T08:08:33.682Z,12.8
2017-01-25T08:09:14.187Z,12.8
2017-01-25T08:09:54.677Z,12.71
2017-01-25T08:10:35.197Z,12.9
2017-01-25T08:11:15.680Z,12.8
2017-01-25T08:11:56.187Z,12.61
2017-01-25T08:12:36.678Z,12.61
2017-01-25T08:13:17.194Z,12.8
2017-01-25T08:13:57.691Z,12.51
2017-01-25T08:14:38.192Z,12.8
2017-01-25T08:15:18.688Z,12.8
2017-01-25T08:15:59.182Z,12.71
2017-01-25T08:16:39.734Z,12.8
2017-01-25T08:17:20.219Z,12.8
2017-01-25T08:18:00.737Z,12.8
2017-01-25T08:18:41.224Z,12.99
2017-01-25T08:19:21.718Z,12.9
2017-01-25T08:20:02.197Z,12.9
2017-01-25T08:20:42.698Z,12.8
2017-01-25T08:21:23.188Z,13.18
2017-01-25T08:22:03.669Z,13.09
2017-01-25T08:22:44.164Z,12.9
2017-01-25T08:23:24.655Z,12.8
2017-01-25T08:24:05.144Z,12.99
2017-01-25T08:24:45.642Z,13.09
2017-01-25T08:25:26.142Z,12.9
2017-01-25T08:26:06.654Z,12.8
2017-01-25T08:26:47.129Z,12.9
2017-01-25T08:27:27.621Z,12.9
2017-01-25T08:28:08.126Z,12.8
2017-01-25T08:28:48.605Z,12.8
2017-01-25T08:29:29.109Z,12.71
2017-01-25T08:30:09.629Z,12.71
2017-01-25T08:30:50.126Z,12.51
2017-01-25T08:31:30.613Z,12.71
2017-01-25T08:32:11.105Z,12.8
2017-01-25T08:32:51.600Z,12.8
2017-01-25T08:33:32.083Z,12.71
2017-01-25T08:34:12.582Z,12.71
2017-01-25T08:34:53.074Z,12.71
2017-01-25T08:35:33.557Z,12.8
2017-01-25T08:36:14.059Z,12.8
2017-01-25T08:36:54.551Z,12.9
2017-01-25T08:37:35.674Z,12.8
2017-01-25T08:39:29.117Z,12.9
2017-01-25T08:40:09.617Z,12.8
2017-01-25T08:40:50.091Z,12.9
2017-01-25T08:41:30.581Z,12.99
2017-01-25T08:42:11.068Z,12.71
2017-01-25T08:42:51.582Z,12.61
2017-01-25T08:43:32.068Z,12.71
2017-01-25T08:44:12.563Z,12.71
2017-01-25T08:44:53.045Z,12.8
2017-01-25T08:45:33.547Z,12.9
2017-01-25T08:46:14.077Z,12.9
2017-01-25T08:46:54.512Z,12.71
2017-01-25T08:47:35.689Z,12.8
2017-01-25T08:48:16.206Z,12.8
2017-01-25T08:48:56.699Z,13.09
2017-01-25T08:49:37.176Z,12.71
2017-01-25T08:50:17.651Z,12.9
2017-01-25T08:50:58.153Z,12.9